Aérodrome :
LOGIN :

S'inscrire | Disclaimer

   EN    FR    IT 

 










Légende :    VFR   VFR Marginal   IFR   IFR Intensif   IFR Très Intensif
Visi : 
Plafond : 
>= 8 km
>= 3000ft
5 à 8 km
1000 à 3000 ft
1500m à 5 km
500 à 1000 ft
800 à 1500m
200 à 500 ft
< 800m
< 200 ft
Symboles :   Orages  Brouillard  Fortes neiges  Fortes précipitations  Vent > 20 kt
SIGMETs :   Divers  Orages  Givrage  Turbulence  Onde Orograph.  Cendres Volcan.






- Altitude de l'aérodrome : 3 ft
- Code IATA : LWR


EHLW - Leuuwarden Air Base

DERNIER METAR :
  • 080625Z AUTO 16004KT 9999 OVC310 M02/M04 Q1038 BLU

METARs EXPIRÉS :
  • 080555Z AUTO 16004KT 9999 OVC290 M01/M04 Q1038 BLU
  • 080525Z AUTO 16005KT 9999 OVC290 M01/M04 Q1038 BLU
  • 080455Z AUTO 17004KT 9999 OVC290 M01/M04 Q1038 BLU
  • 080425Z AUTO 17005KT 9999 OVC290 M01/M04 Q1038 BLU
  • 080355Z AUTO 16005KT 9999 OVC300 M01/M04 Q1038 BLU
  • 080325Z AUTO 17004KT 9000 BR OVC320 M01/M03 Q1038 BLU

TAF TAF EHLW
Valide du 08 à 06h jusqu'au 08 à 18h UTC


080558Z 0806/0818 17003KT 8000 NSC
TEMPO 0806/0808 3000 MIFG BR



MET'MAP, la Météo Aéronautique d'un coup d'oeil ! - Copyright ORBIFLY Décembre 2007 - Disclaimer

ORBIFLY MET'MAP TEAM :

Programmation & Développement : Alexandra Zaïnal
Sur une idée originale de : Baudouin d'Aumeries
Soutien technique & logistique : Manuel Goepfert
Assistance : Marc-Olivier Méhu




SOURCES & CREDITS :

   NOAA